createdAt,value
2023-01-13T00:00:32.163Z,14.15
2023-01-13T00:03:00.868Z,14.13
2023-01-13T00:05:30.943Z,14.09
2023-01-13T00:07:59.885Z,14.11
2023-01-13T00:10:28.572Z,14.13
2023-01-13T00:12:57.249Z,14.12
2023-01-13T00:15:26.237Z,14.13
2023-01-13T00:17:54.978Z,14.13
2023-01-13T00:20:23.726Z,14.12
2023-01-13T00:22:53.834Z,14.13
2023-01-13T00:25:22.586Z,14.14
2023-01-13T00:27:51.360Z,14.14
2023-01-13T00:30:20.175Z,14.13
2023-01-13T00:32:48.906Z,14.12
2023-01-13T00:35:17.849Z,14.13
2023-01-13T00:37:46.464Z,14.13
2023-01-13T00:40:16.784Z,14.14
2023-01-13T00:43:02.997Z,14.14
2023-01-13T00:45:31.724Z,14.13
2023-01-13T00:48:00.454Z,14.14
2023-01-13T00:50:30.360Z,14.14
2023-01-13T00:53:01.418Z,14.14
2023-01-13T00:55:33.415Z,14.15
2023-01-13T00:58:03.788Z,14.13
2023-01-13T01:00:33.144Z,14.15
2023-01-13T01:03:01.868Z,14.13
2023-01-13T01:05:30.628Z,14.11
2023-01-13T01:07:59.616Z,14.13
2023-01-13T01:10:29.384Z,14.15
2023-01-13T01:12:59.507Z,14.13
2023-01-13T01:15:28.187Z,14.13
2023-01-13T01:17:57.179Z,14.14
2023-01-13T01:20:25.862Z,14.14
2023-01-13T01:22:54.511Z,14.12
2023-01-13T01:25:23.590Z,14.15
2023-01-13T01:27:52.282Z,14.14
2023-01-13T01:30:22.404Z,14.14
2023-01-13T01:32:51.080Z,14.11
2023-01-13T01:35:19.875Z,14.11
2023-01-13T01:37:48.557Z,14.10
2023-01-13T01:40:17.639Z,14.10
2023-01-13T01:43:04.013Z,14.10
2023-01-13T01:45:34.330Z,14.10
2023-01-13T01:48:05.545Z,14.10
2023-01-13T01:50:34.336Z,14.09
2023-01-13T01:53:07.136Z,14.07
2023-01-13T01:55:37.946Z,14.10
2023-01-13T01:58:09.472Z,14.09
2023-01-13T02:00:39.834Z,14.08
2023-01-13T02:03:08.965Z,14.06
2023-01-13T02:05:39.110Z,14.08
2023-01-13T02:08:09.863Z,14.06
2023-01-13T02:10:39.346Z,14.05
2023-01-13T02:13:09.111Z,14.07
2023-01-13T02:15:43.917Z,14.05
2023-01-13T02:18:38.441Z,14.06
2023-01-13T02:21:25.094Z,14.04
2023-01-13T02:24:50.430Z,14.02
2023-01-13T02:27:42.024Z,14.04
2023-01-13T02:30:35.938Z,14.05
2023-01-13T02:33:16.217Z,14.05
2023-01-13T02:35:50.589Z,14.04
2023-01-13T02:38:23.275Z,14.05
2023-01-13T02:40:58.641Z,14.05
2023-01-13T02:43:49.489Z,14.02
2023-01-13T02:46:23.092Z,14.02
2023-01-13T02:48:53.181Z,13.99
2023-01-13T02:51:24.554Z,13.99
2023-01-13T02:53:56.932Z,13.96
2023-01-13T02:56:25.895Z,13.96
2023-01-13T02:58:55.936Z,14.00
2023-01-13T03:01:26.387Z,13.99
2023-01-13T03:03:54.959Z,13.96
2023-01-13T03:06:34.185Z,13.99
2023-01-13T03:09:06.792Z,13.99
2023-01-13T03:11:38.951Z,13.96
2023-01-13T03:14:19.013Z,13.99
2023-01-13T03:16:57.840Z,14.00
2023-01-13T03:19:32.493Z,13.99
2023-01-13T03:22:05.578Z,13.98
2023-01-13T03:24:37.446Z,13.97
2023-01-13T03:27:08.892Z,13.91
2023-01-13T03:29:41.176Z,13.97
2023-01-13T03:32:13.917Z,13.96
2023-01-13T03:34:46.939Z,13.93
2023-01-13T03:37:16.240Z,13.94
2023-01-13T03:39:48.395Z,13.97
2023-01-13T03:42:20.156Z,13.97
2023-01-13T03:44:50.942Z,13.97
2023-01-13T03:47:24.632Z,13.93
2023-01-13T03:49:55.882Z,13.93
2023-01-13T03:52:27.457Z,13.97
2023-01-13T03:54:58.089Z,13.99
2023-01-13T03:57:31.700Z,13.97
2023-01-13T04:00:02.209Z,13.96
2023-01-13T04:02:51.364Z,13.96
2023-01-13T04:05:20.280Z,13.95
2023-01-13T04:07:52.443Z,13.95
2023-01-13T04:10:25.751Z,13.95
2023-01-13T04:13:04.978Z,13.92
2023-01-13T04:15:37.219Z,13.92
2023-01-13T04:18:16.727Z,13.94
2023-01-13T04:20:46.846Z,13.95
2023-01-13T04:23:15.567Z,13.93
2023-01-13T04:25:45.309Z,13.94
2023-01-13T04:28:14.296Z,13.92
2023-01-13T04:30:44.297Z,13.95
2023-01-13T04:33:14.890Z,13.91
2023-01-13T04:35:43.719Z,13.91
2023-01-13T04:38:14.528Z,13.94
2023-01-13T04:40:43.708Z,13.93
2023-01-13T04:43:12.951Z,13.91
2023-01-13T04:45:41.488Z,13.93
2023-01-13T04:48:10.300Z,13.94
2023-01-13T04:50:40.302Z,13.91
2023-01-13T04:53:09.412Z,13.89
2023-01-13T04:55:38.079Z,13.93
2023-01-13T04:58:08.088Z,13.87
2023-01-13T05:00:39.930Z,13.91
2023-01-13T05:03:11.498Z,13.93
2023-01-13T05:05:44.744Z,13.93
2023-01-13T05:08:16.069Z,13.94
2023-01-13T05:10:45.156Z,13.93
2023-01-13T05:13:32.361Z,13.91
2023-01-13T05:16:17.883Z,13.91
2023-01-13T05:18:52.930Z,13.92
2023-01-13T05:21:42.807Z,13.88
2023-01-13T05:24:29.836Z,13.92
2023-01-13T05:26:59.333Z,13.93
2023-01-13T05:29:30.705Z,13.92
2023-01-13T05:32:03.330Z,13.91
2023-01-13T05:34:42.966Z,13.91
2023-01-13T05:37:13.709Z,13.91
2023-01-13T05:40:01.118Z,13.92
2023-01-13T05:42:49.481Z,13.91
2023-01-13T05:45:24.203Z,13.91
2023-01-13T05:47:57.277Z,13.90
2023-01-13T05:50:28.367Z,13.91
2023-01-13T05:53:02.456Z,13.93
2023-01-13T05:55:33.323Z,13.88
2023-01-13T05:58:05.569Z,13.92
2023-01-13T06:00:39.162Z,13.92
2023-01-13T06:03:12.627Z,13.93
2023-01-13T06:05:41.621Z,13.91
2023-01-13T06:08:14.159Z,13.91
2023-01-13T06:10:46.781Z,13.93
2023-01-13T06:13:18.712Z,13.91
2023-01-13T06:15:50.963Z,13.91
2023-01-13T06:18:20.228Z,13.91
2023-01-13T06:20:51.839Z,13.91
2023-01-13T06:23:24.575Z,13.91
2023-01-13T06:26:03.372Z,13.94
2023-01-13T06:28:35.823Z,13.91
2023-01-13T06:31:09.583Z,13.91
2023-01-13T06:33:42.638Z,13.90
2023-01-13T06:36:17.745Z,13.92
2023-01-13T06:38:51.144Z,13.96
2023-01-13T06:41:42.644Z,13.89
2023-01-13T06:44:12.746Z,13.94
2023-01-13T06:46:44.601Z,13.92
2023-01-13T06:49:13.856Z,13.93
2023-01-13T06:51:44.886Z,13.95
2023-01-13T06:54:20.935Z,13.92
2023-01-13T06:56:54.653Z,13.94
2023-01-13T06:59:41.243Z,13.92
2023-01-13T07:02:40.301Z,13.89
2023-01-13T07:05:19.471Z,13.93
2023-01-13T07:07:48.692Z,13.92
2023-01-13T07:10:24.677Z,13.92
2023-01-13T07:13:15.019Z,13.93
2023-01-13T07:15:57.649Z,13.93
2023-01-13T07:18:32.572Z,13.92
2023-01-13T07:21:04.247Z,13.91
2023-01-13T07:23:37.384Z,13.92
2023-01-13T07:26:30.514Z,13.93
2023-01-13T07:29:03.860Z,13.93
2023-01-13T07:31:35.818Z,13.94
2023-01-13T07:34:07.589Z,13.94
2023-01-13T07:36:41.086Z,13.93
2023-01-13T07:39:09.720Z,13.88
2023-01-13T07:42:00.687Z,13.89
2023-01-13T07:44:33.976Z,13.94
2023-01-13T07:47:07.235Z,13.95
2023-01-13T07:49:40.975Z,13.95
2023-01-13T07:52:15.082Z,13.92
2023-01-13T07:54:52.491Z,13.93
2023-01-13T07:57:25.365Z,13.97
2023-01-13T08:00:05.565Z,13.94
2023-01-13T08:02:49.927Z,13.95
2023-01-13T08:05:19.265Z,13.87
2023-01-13T08:07:49.586Z,13.92
2023-01-13T08:10:24.057Z,13.87
2023-01-13T08:13:14.199Z,13.86
2023-01-13T08:15:49.743Z,13.90
2023-01-13T08:18:22.791Z,13.91
2023-01-13T08:20:53.382Z,13.95
2023-01-13T08:23:27.632Z,13.96
2023-01-13T08:26:04.968Z,13.93
2023-01-13T08:28:37.650Z,13.92
2023-01-13T08:31:16.172Z,13.96
2023-01-13T08:33:48.908Z,13.97
2023-01-13T08:36:26.202Z,14.02
2023-01-13T08:38:57.158Z,14.02
2023-01-13T08:41:40.855Z,14.03
2023-01-13T08:44:13.183Z,14.03
2023-01-13T08:46:45.669Z,14.01
2023-01-13T08:49:18.176Z,14.01
2023-01-13T08:51:50.096Z,14.05
2023-01-13T08:54:23.241Z,14.06
2023-01-13T08:56:52.630Z,14.05
2023-01-13T08:59:26.452Z,14.07
2023-01-13T09:01:58.769Z,14.03
2023-01-13T09:05:10.864Z,13.95
2023-01-13T09:07:39.950Z,14.07
2023-01-13T09:10:09.803Z,14.09
2023-01-13T09:13:01.017Z,14.08
2023-01-13T09:15:30.909Z,14.09
2023-01-13T09:17:59.834Z,14.09
2023-01-13T09:20:28.295Z,14.09
2023-01-13T09:22:56.749Z,14.07
2023-01-13T09:25:25.259Z,14.09
2023-01-13T09:27:53.758Z,14.08
2023-01-13T09:30:22.921Z,14.07
2023-01-13T09:33:13.331Z,14.09
2023-01-13T09:35:40.923Z,14.07
2023-01-13T09:38:09.331Z,14.12
2023-01-13T09:40:39.429Z,14.10
2023-01-13T09:43:33.651Z,14.09
2023-01-13T09:46:05.959Z,14.13
2023-01-13T09:48:51.909Z,14.14
2023-01-13T09:51:24.735Z,14.19
2023-01-13T09:53:56.330Z,14.25
2023-01-13T09:56:25.228Z,14.25
2023-01-13T09:58:53.986Z,14.24
2023-01-13T10:01:26.832Z,14.26
2023-01-13T10:03:56.830Z,14.22
2023-01-13T10:06:31.048Z,14.24
2023-01-13T10:08:59.589Z,14.23
2023-01-13T10:11:50.682Z,14.24
2023-01-13T10:14:21.202Z,14.27
2023-01-13T10:16:52.438Z,14.26
2023-01-13T10:19:25.958Z,14.23
2023-01-13T10:22:15.415Z,14.27
2023-01-13T10:24:59.944Z,14.24
2023-01-13T10:27:31.658Z,14.26
2023-01-13T10:30:00.111Z,14.21
2023-01-13T10:32:28.614Z,14.18
2023-01-13T10:34:58.584Z,14.23
2023-01-13T10:37:28.973Z,14.27
2023-01-13T10:39:59.274Z,14.26
2023-01-13T10:42:27.951Z,14.30
2023-01-13T10:44:57.528Z,14.25
2023-01-13T10:47:28.261Z,14.29
2023-01-13T10:50:05.445Z,14.36
2023-01-13T10:52:37.648Z,14.33
2023-01-13T10:55:26.366Z,14.28
2023-01-13T10:57:54.858Z,14.30
2023-01-13T11:00:30.986Z,14.29
2023-01-13T11:03:27.945Z,14.32
2023-01-13T11:05:59.344Z,14.30
2023-01-13T11:08:29.630Z,14.28
2023-01-13T11:11:00.018Z,14.27
2023-01-13T11:13:32.965Z,14.29
2023-01-13T11:16:05.737Z,14.29
2023-01-13T11:18:41.516Z,14.26
2023-01-13T11:21:21.478Z,14.29
2023-01-13T11:23:54.929Z,14.27
2023-01-13T11:26:28.245Z,14.27
2023-01-13T11:29:02.254Z,14.22
2023-01-13T11:31:34.247Z,14.20
2023-01-13T11:34:08.274Z,14.25
2023-01-13T11:36:40.973Z,14.30
2023-01-13T11:39:16.847Z,14.24
2023-01-13T11:42:08.889Z,14.28
2023-01-13T11:44:41.360Z,14.28
2023-01-13T11:47:12.179Z,14.31
2023-01-13T11:49:40.951Z,14.33
2023-01-13T11:52:18.786Z,14.37
2023-01-13T11:54:54.764Z,14.39
2023-01-13T11:57:47.120Z,14.41
2023-01-13T12:00:23.716Z,14.42
2023-01-13T12:02:58.115Z,14.42
2023-01-13T12:05:35.731Z,14.42
2023-01-13T12:08:16.372Z,14.43
2023-01-13T12:10:58.424Z,14.44
2023-01-13T12:13:33.267Z,14.38
2023-01-13T12:16:16.777Z,14.42
2023-01-13T12:19:07.748Z,14.44
2023-01-13T12:21:40.098Z,14.45
2023-01-13T12:24:17.102Z,14.44
2023-01-13T12:26:50.205Z,14.42
2023-01-13T12:29:21.889Z,14.41
2023-01-13T12:31:51.180Z,14.42
2023-01-13T12:34:46.190Z,14.46
2023-01-13T12:37:19.243Z,14.46
2023-01-13T12:40:05.578Z,14.47
2023-01-13T12:42:56.715Z,14.48
2023-01-13T12:45:30.154Z,14.46
2023-01-13T12:47:59.695Z,14.47
2023-01-13T12:50:40.871Z,14.48
2023-01-13T12:53:30.485Z,14.49
2023-01-13T12:56:30.987Z,14.48
2023-01-13T12:59:34.072Z,14.49
2023-01-13T13:02:26.415Z,14.52
2023-01-13T13:04:57.009Z,14.52
2023-01-13T13:07:33.707Z,14.53
2023-01-13T13:10:04.437Z,14.53
2023-01-13T13:13:11.212Z,14.52
2023-01-13T13:15:39.814Z,14.52
2023-01-13T13:18:28.546Z,14.52
2023-01-13T13:21:03.622Z,14.50
2023-01-13T13:23:47.999Z,14.45
2023-01-13T13:26:25.771Z,14.45
2023-01-13T13:29:07.299Z,14.39
2023-01-13T13:31:51.172Z,14.39
2023-01-13T13:34:28.113Z,14.40
2023-01-13T13:37:09.277Z,14.41
2023-01-13T13:40:00.571Z,14.41
2023-01-13T13:42:49.447Z,14.38
2023-01-13T13:45:39.858Z,14.42
2023-01-13T13:48:23.772Z,14.40
2023-01-13T13:50:58.016Z,14.37
2023-01-13T13:53:28.413Z,14.41
2023-01-13T13:55:59.593Z,14.36
2023-01-13T13:58:28.935Z,14.40
2023-01-13T14:00:59.614Z,14.38
2023-01-13T14:03:31.884Z,14.39
2023-01-13T14:06:02.713Z,14.41
2023-01-13T14:08:32.635Z,14.36
2023-01-13T14:11:01.370Z,14.32
2023-01-13T14:13:31.670Z,14.32
2023-01-13T14:16:02.884Z,14.35
2023-01-13T14:18:33.784Z,14.36
2023-01-13T14:21:05.367Z,14.31
2023-01-13T14:23:35.049Z,14.35
2023-01-13T14:26:07.729Z,14.39
2023-01-13T14:28:38.313Z,14.39
2023-01-13T14:31:09.416Z,14.38
2023-01-13T14:33:40.182Z,14.36
2023-01-13T14:36:17.944Z,14.37
2023-01-13T14:38:47.964Z,14.41
2023-01-13T14:41:23.762Z,14.43
2023-01-13T14:43:55.192Z,14.45
2023-01-13T14:46:25.421Z,14.44
2023-01-13T14:49:01.527Z,14.52
2023-01-13T14:51:31.332Z,14.58
2023-01-13T14:53:59.864Z,14.61
2023-01-13T14:56:39.759Z,14.66
2023-01-13T14:59:42.720Z,14.67
2023-01-13T15:02:43.287Z,14.64
2023-01-13T15:05:47.719Z,14.61
2023-01-13T15:08:27.731Z,14.59
2023-01-13T15:10:59.997Z,14.61
2023-01-13T15:13:35.371Z,14.56
2023-01-13T15:16:06.146Z,14.54
2023-01-13T15:18:40.188Z,14.52
2023-01-13T15:21:09.422Z,14.53
2023-01-13T15:23:39.884Z,14.52
2023-01-13T15:26:25.575Z,14.46
2023-01-13T15:28:55.496Z,14.46
2023-01-13T15:31:24.788Z,14.42
2023-01-13T15:33:55.187Z,14.42
2023-01-13T15:36:27.316Z,14.41
2023-01-13T15:39:02.581Z,14.43
2023-01-13T15:41:49.586Z,14.42
2023-01-13T15:44:39.452Z,14.48
2023-01-13T15:47:09.558Z,14.50
2023-01-13T15:49:40.932Z,14.46
2023-01-13T15:52:21.312Z,14.43
2023-01-13T15:54:50.057Z,14.44
2023-01-13T15:57:22.512Z,14.50
2023-01-13T15:59:51.350Z,14.50
2023-01-13T16:02:20.166Z,14.52
2023-01-13T16:04:51.291Z,14.51
2023-01-13T16:07:20.441Z,14.50
2023-01-13T16:09:49.079Z,14.42
2023-01-13T16:12:17.472Z,14.46
2023-01-13T16:14:45.845Z,14.46
2023-01-13T16:17:16.709Z,14.45
2023-01-13T16:19:45.850Z,14.46
2023-01-13T16:22:16.298Z,14.47
2023-01-13T16:24:45.072Z,14.43
2023-01-13T16:27:15.918Z,14.44
2023-01-13T16:29:44.960Z,14.39
2023-01-13T16:32:13.997Z,14.43
2023-01-13T16:34:42.813Z,14.42
2023-01-13T16:37:23.339Z,14.41
2023-01-13T16:39:52.547Z,14.40
2023-01-13T16:42:21.340Z,14.36
2023-01-13T16:44:50.745Z,14.34
2023-01-13T16:47:20.149Z,14.37
2023-01-13T16:49:48.678Z,14.36
2023-01-13T16:52:17.171Z,14.31
2023-01-13T16:54:47.348Z,14.29
2023-01-13T16:57:16.774Z,14.29
2023-01-13T16:59:45.265Z,14.33
2023-01-13T17:02:14.812Z,14.35
2023-01-13T17:04:43.487Z,14.35
2023-01-13T17:07:16.959Z,14.37
2023-01-13T17:09:46.832Z,14.40
2023-01-13T17:12:15.447Z,14.43
2023-01-13T17:14:44.327Z,14.44
2023-01-13T17:17:21.846Z,14.42
2023-01-13T17:19:53.070Z,14.43
2023-01-13T17:22:22.462Z,14.42
2023-01-13T17:24:56.137Z,14.41
2023-01-13T17:27:25.958Z,14.42
2023-01-13T17:29:54.819Z,14.41
2023-01-13T17:32:24.021Z,14.38
2023-01-13T17:34:53.846Z,14.36
2023-01-13T17:37:22.332Z,14.35
2023-01-13T17:39:53.565Z,14.31
2023-01-13T17:42:23.748Z,14.33
2023-01-13T17:44:53.042Z,14.33
2023-01-13T17:47:21.777Z,14.36
2023-01-13T17:49:50.257Z,14.33
2023-01-13T17:52:18.842Z,14.34
2023-01-13T17:54:47.196Z,14.34
2023-01-13T17:57:16.934Z,14.35
2023-01-13T17:59:46.982Z,14.35
2023-01-13T18:02:15.786Z,14.37
2023-01-13T18:04:44.272Z,14.39
2023-01-13T18:07:12.757Z,14.38
2023-01-13T18:09:41.190Z,14.40
2023-01-13T18:12:10.553Z,14.40
2023-01-13T18:14:40.488Z,14.39
2023-01-13T18:17:09.190Z,14.40
2023-01-13T18:19:55.211Z,14.39
2023-01-13T18:22:41.082Z,14.40
2023-01-13T18:25:30.545Z,14.42
2023-01-13T18:27:59.543Z,14.40
2023-01-13T18:30:29.378Z,14.41
2023-01-13T18:32:58.039Z,14.40
2023-01-13T18:35:26.492Z,14.39
2023-01-13T18:37:54.921Z,14.40
2023-01-13T18:40:23.401Z,14.39
2023-01-13T18:42:58.910Z,14.39
2023-01-13T18:45:30.142Z,14.40
2023-01-13T18:48:00.002Z,14.40
2023-01-13T18:50:29.115Z,14.41
2023-01-13T18:52:57.885Z,14.39
2023-01-13T18:55:28.485Z,14.40
2023-01-13T18:57:57.435Z,14.38
2023-01-13T19:00:27.145Z,14.37
2023-01-13T19:05:35.313Z,14.37
2023-01-13T19:08:04.013Z,14.37
2023-01-13T19:10:32.854Z,14.37
2023-01-13T19:13:02.310Z,14.35
2023-01-13T19:15:30.972Z,14.36
2023-01-13T19:18:01.196Z,14.37
2023-01-13T19:20:29.605Z,14.37
2023-01-13T19:22:58.123Z,14.36
2023-01-13T19:25:26.859Z,14.36
2023-01-13T19:27:55.543Z,14.36
2023-01-13T19:30:24.004Z,14.37
2023-01-13T19:32:52.400Z,14.37
2023-01-13T19:35:22.186Z,14.37
2023-01-13T19:37:50.615Z,14.37
2023-01-13T19:40:19.139Z,14.36
2023-01-13T19:43:05.275Z,14.34
2023-01-13T19:45:35.463Z,14.34
2023-01-13T19:48:05.445Z,14.35
2023-01-13T19:50:39.726Z,14.34
2023-01-13T19:53:16.110Z,14.33
2023-01-13T19:55:47.700Z,14.34
2023-01-13T19:58:16.226Z,14.33
2023-01-13T20:00:47.477Z,14.34
2023-01-13T20:03:16.807Z,14.33
2023-01-13T20:05:46.591Z,14.33
2023-01-13T20:08:15.437Z,14.33
2023-01-13T20:10:45.715Z,14.31
2023-01-13T20:13:14.473Z,14.32
2023-01-13T20:15:43.973Z,14.30
2023-01-13T20:18:13.047Z,14.32
2023-01-13T20:20:41.595Z,14.33
2023-01-13T20:23:12.552Z,14.32
2023-01-13T20:25:43.397Z,14.33
2023-01-13T20:28:11.852Z,14.32
2023-01-13T20:30:41.685Z,14.33
2023-01-13T20:33:10.218Z,14.32
2023-01-13T20:35:38.717Z,14.31
2023-01-13T20:38:07.252Z,14.32
2023-01-13T20:40:37.347Z,14.30
2023-01-13T20:43:05.444Z,14.29
2023-01-13T20:45:34.323Z,14.28
2023-01-13T20:48:02.851Z,14.28
2023-01-13T20:50:31.292Z,14.26
2023-01-13T20:52:59.830Z,14.26
2023-01-13T20:55:29.120Z,14.25
2023-01-13T20:57:58.935Z,14.25
2023-01-13T21:00:28.588Z,14.27
2023-01-13T21:02:57.140Z,14.27
2023-01-13T21:05:25.625Z,14.25
2023-01-13T21:07:54.223Z,14.23
2023-01-13T21:10:22.772Z,14.19
2023-01-13T21:13:11.222Z,14.17
2023-01-13T21:15:41.115Z,14.18
2023-01-13T21:18:27.150Z,14.12
2023-01-13T21:21:11.501Z,14.15
2023-01-13T21:23:41.003Z,14.11
2023-01-13T21:26:10.116Z,14.09
2023-01-13T21:28:38.795Z,14.09
2023-01-13T21:31:10.370Z,14.07
2023-01-13T21:33:39.852Z,14.07
2023-01-13T21:36:08.856Z,14.08
2023-01-13T21:38:37.389Z,14.07
2023-01-13T21:41:08.095Z,14.02
2023-01-13T21:43:55.398Z,14.05
2023-01-13T21:46:45.160Z,14.00
2023-01-13T21:49:13.600Z,13.92
2023-01-13T21:51:43.890Z,14.02
2023-01-13T21:54:16.619Z,13.92
2023-01-13T21:56:45.936Z,13.90
2023-01-13T21:59:14.753Z,13.90
2023-01-13T22:02:10.531Z,13.88
2023-01-13T22:04:33.753Z,13.90
2023-01-13T22:07:04.639Z,13.89
2023-01-13T22:09:33.131Z,13.88
2023-01-13T22:12:01.650Z,13.91
2023-01-13T22:14:30.161Z,13.90
2023-01-13T22:17:01.223Z,13.93
2023-01-13T22:19:30.454Z,13.92
2023-01-13T22:21:58.943Z,13.86
2023-01-13T22:24:30.126Z,13.89
2023-01-13T22:26:58.657Z,13.92
2023-01-13T22:29:27.064Z,13.97
2023-01-13T22:31:55.664Z,13.97
2023-01-13T22:34:25.446Z,13.94
2023-01-13T22:36:53.915Z,13.96
2023-01-13T22:39:22.707Z,13.99
2023-01-13T22:41:51.842Z,13.98
2023-01-13T22:44:20.624Z,14.03
2023-01-13T22:46:49.603Z,13.97
2023-01-13T22:49:21.400Z,14.01
2023-01-13T22:51:51.774Z,14.04
2023-01-13T22:54:20.303Z,13.98
2023-01-13T22:56:49.504Z,13.95
2023-01-13T22:59:17.932Z,13.97
2023-01-13T23:01:46.402Z,13.98
2023-01-13T23:04:15.053Z,13.98
2023-01-13T23:06:43.588Z,13.97
2023-01-13T23:09:13.396Z,13.98
2023-01-13T23:11:42.288Z,13.94
2023-01-13T23:14:13.040Z,13.93
2023-01-13T23:16:42.352Z,14.00
2023-01-13T23:19:11.743Z,13.99
2023-01-13T23:21:40.355Z,13.97
2023-01-13T23:24:09.202Z,13.94
2023-01-13T23:26:39.108Z,13.96
2023-01-13T23:29:09.322Z,13.94
2023-01-13T23:31:37.898Z,13.98
2023-01-13T23:34:06.396Z,13.97
2023-01-13T23:36:37.016Z,13.96
2023-01-13T23:39:05.542Z,13.94
2023-01-13T23:41:34.007Z,13.92
2023-01-13T23:44:03.926Z,13.89
2023-01-13T23:46:33.948Z,13.94
2023-01-13T23:49:03.158Z,13.92
2023-01-13T23:51:31.667Z,13.94
2023-01-13T23:54:00.209Z,13.96
2023-01-13T23:56:30.435Z,14.00
2023-01-13T23:58:59.039Z,14.00
